Archival Weather

Pemba

Pemba, Mozambique (FQPB)

Report from: Saturday, April 1, 2023 4:00 PM CAT
Current time: Saturday, June 22, 2024 2:20 AM CAT

Current weather – Weather history – Daily summaries
Weather forecast

Temperature29.0°C (84.2°F)
Heat index34.6°C (94.3°F)
Dew point25.0°C (77.0°F)
Winds 9 kts (4.6 m/s, 10.4 mph) South (170°)
Visibility6.2 mi. (10 km)
Clouds Ceiling: Broken clouds 0 ft. (0 m)
Scattered clouds 2,000 ft. (610 m)
Few clouds with cumulonimbus 2,500 ft. (762 m)
Altimeter29.85 in.Hg (1011 mB)
Relative humidity79 %
Density altitude2,106 ft. (642 m)
Remarks Cumulonimbus clouds observed
Flight conditions Low Instrument Meteorological Conditions
Raw dataFQPB 011400Z 17009KT 9999 SCT020 FEW025CB BKN/// 29/25 Q1011 RMK CB TO SW/W/NW
An error has occurred. This application may no longer respond until reloaded. Reload 🗙